SAS542 EGCC-EKCH
Flight info
| Callsign | SAS542 |
|---|---|
| Flight time | N/A |
| Altitude | 37000 |
| Route | DESIG L603 LAMIX UT29 LIBSO UL975 ERDOW DCT ROPAL DCT LESRA DCT TESPI |
| Aircraft | A319/M-SDE3FGIJ1RWXY/LB1 |
Departure
| Time | N/A |
|---|---|
| Airport | Manchester Airport (EGCC) |
Arrival
| Time | 2026-04-30 18:11 |
|---|---|
| Airport | Copenhagen Kastrup Airport (EKCH) |
| Time | Latitude | Longitude | Altitude | Speed | Heading |
|---|---|---|---|---|---|
| 2026-04-30 17:39 | 55.40190 | 8.12993 | 37484 ft | 440 kts | 86° |
| 2026-04-30 17:41 | 55.41198 | 8.55897 | 36031 ft | 438 kts | 86° |
| 2026-04-30 17:42 | 55.41423 | 8.66674 | 34998 ft | 435 kts | 86° |
| 2026-04-30 17:42 | 55.41750 | 8.82381 | 33602 ft | 425 kts | 86° |
| 2026-04-30 17:43 | 55.41942 | 8.92706 | 32627 ft | 419 kts | 86° |
| 2026-04-30 17:44 | 55.42209 | 9.07913 | 31207 ft | 410 kts | 86° |
| 2026-04-30 17:44 | 55.42460 | 9.22814 | 29755 ft | 402 kts | 86° |
| 2026-04-30 17:46 | 55.42834 | 9.46892 | 27539 ft | 386 kts | 86° |
| 2026-04-30 17:47 | 55.43073 | 9.65520 | 25930 ft | 374 kts | 85° |
| 2026-04-30 17:48 | 55.43295 | 9.83561 | 24335 ft | 363 kts | 85° |
| 2026-04-30 17:48 | 55.43432 | 9.96727 | 22957 ft | 354 kts | 86° |
| 2026-04-30 17:49 | 55.43594 | 10.13795 | 21164 ft | 343 kts | 86° |
| 2026-04-30 17:50 | 55.43728 | 10.30338 | 19432 ft | 333 kts | 86° |
| 2026-04-30 17:51 | 55.43825 | 10.42461 | 18109 ft | 326 kts | 86° |
| 2026-04-30 17:52 | 55.43887 | 10.54298 | 16826 ft | 318 kts | 87° |
| 2026-04-30 17:53 | 55.43977 | 10.73362 | 14810 ft | 305 kts | 88° |
| 2026-04-30 17:54 | 55.44018 | 10.88080 | 13150 ft | 297 kts | 88° |
| 2026-04-30 17:55 | 55.44059 | 11.02556 | 12436 ft | 297 kts | 89° |
| 2026-04-30 17:56 | 55.44072 | 11.17084 | 12444 ft | 296 kts | 88° |
| 2026-04-30 17:57 | 55.44069 | 11.27939 | 12056 ft | 294 kts | 88° |
| 2026-04-30 17:58 | 55.44056 | 11.38695 | 11316 ft | 292 kts | 88° |
| 2026-04-30 17:59 | 55.44030 | 11.52912 | 10350 ft | 285 kts | 89° |
| 2026-04-30 18:00 | 55.43985 | 11.65429 | 9668 ft | 277 kts | 89° |
| 2026-04-30 18:00 | 55.43946 | 11.76589 | 8906 ft | 269 kts | 88° |
| 2026-04-30 18:01 | 55.43912 | 11.83145 | 8223 ft | 266 kts | 88° |
| 2026-04-30 18:02 | 55.43860 | 11.92857 | 7208 ft | 263 kts | 88° |
| 2026-04-30 18:02 | 55.43806 | 12.01406 | 6289 ft | 259 kts | 89° |
| 2026-04-30 18:03 | 55.43742 | 12.10816 | 5293 ft | 256 kts | 89° |
| 2026-04-30 18:04 | 55.43672 | 12.20192 | 4289 ft | 254 kts | 89° |
| 2026-04-30 18:05 | 55.43565 | 12.31883 | 3748 ft | 217 kts | 88° |
| 2026-04-30 18:06 | 55.46090 | 12.40180 | 3386 ft | 198 kts | 38° |
| 2026-04-30 18:07 | 55.50179 | 12.46444 | 2405 ft | 189 kts | 37° |
| 2026-04-30 18:08 | 55.53092 | 12.50915 | 1654 ft | 181 kts | 37° |
| 2026-04-30 18:09 | 55.56504 | 12.56162 | 757 ft | 140 kts | 37° |
| 2026-04-30 18:10 | 55.59289 | 12.60440 | 62 ft | 128 kts | 39° |
| 2026-04-30 18:11 | 55.60650 | 12.62350 | 19 ft | 15 kts | 11° |
| 2026-04-30 18:11 | 55.60657 | 12.62352 | 19 ft | 0 kts | 11° |
| 2026-04-30 18:12 | 55.60786 | 12.62409 | 17 ft | 13 kts | 26° |
| 2026-04-30 18:13 | 55.60956 | 12.62656 | 17 ft | 17 kts | 40° |
| 2026-04-30 18:13 | 55.61168 | 12.62987 | 17 ft | 8 kts | 41° |
| 2026-04-30 18:14 | 55.61355 | 12.63277 | 17 ft | 22 kts | 41° |
| 2026-04-30 18:15 | 55.61759 | 12.63899 | 19 ft | 23 kts | 41° |
| 2026-04-30 18:15 | 55.62147 | 12.64300 | 17 ft | 0 kts | 25° |
| 2026-04-30 18:16 | 55.62162 | 12.64313 | 16 ft | 5 kts | 25° |
| 2026-04-30 18:16 | 55.62264 | 12.64470 | 17 ft | 14 kts | 65° |
| 2026-04-30 18:17 | 55.62309 | 12.64645 | 19 ft | 17 kts | 65° |
| 2026-04-30 18:17 | 55.62350 | 12.64848 | 17 ft | 18 kts | 95° |
| 2026-04-30 18:17 | 55.62304 | 12.65193 | 17 ft | 15 kts | 24° |
| 2026-04-30 18:18 | 55.62420 | 12.65201 | 17 ft | 19 kts | 358° |
| 2026-04-30 18:18 | 55.62554 | 12.65195 | 17 ft | 14 kts | 359° |
| 2026-04-30 18:18 | 55.62659 | 12.65190 | 17 ft | 15 kts | 357° |
| 2026-04-30 18:18 | 55.62711 | 12.65185 | 17 ft | 2 kts | 357° |
| 2026-04-30 18:19 | 55.62735 | 12.65183 | 17 ft | 0 kts | 356° |